sensor_id;sensor_type;location;lat;lon;timestamp;pressure;altitude;pressure_sealevel;temperature;humidity
62712;BME280;48772;55.586;37.730;2023-02-12T00:01:22;97821.63;;;-1.19;100.00
62712;BME280;48772;55.586;37.730;2023-02-12T00:03:48;97785.97;;;-1.34;100.00
62712;BME280;48772;55.586;37.730;2023-02-12T00:06:14;97841.09;;;-0.96;100.00
62712;BME280;48772;55.586;37.730;2023-02-12T00:08:41;97818.50;;;-1.11;100.00
62712;BME280;48772;55.586;37.730;2023-02-12T00:11:09;97799.97;;;-1.21;100.00
62712;BME280;48772;55.586;37.730;2023-02-12T00:13:37;97773.00;;;-1.35;100.00
62712;BME280;48772;55.586;37.730;2023-02-12T00:16:05;97843.50;;;-0.93;100.00
62712;BME280;48772;55.586;37.730;2023-02-12T00:26:19;97898.50;;;-0.67;100.00
62712;BME280;48772;55.586;37.730;2023-02-12T00:29:09;97905.59;;;-0.69;100.00
62712;BME280;48772;55.586;37.730;2023-02-12T00:31:47;97830.19;;;-1.17;100.00
62712;BME280;48772;55.586;37.730;2023-02-12T00:34:18;97909.41;;;-0.74;100.00
62712;BME280;48772;55.586;37.730;2023-02-12T00:36:55;97818.84;;;-1.30;100.00
62712;BME280;48772;55.586;37.730;2023-02-12T00:44:23;97893.47;;;-0.98;100.00
62712;BME280;48772;55.586;37.730;2023-02-12T00:46:52;97847.28;;;-1.39;100.00
62712;BME280;48772;55.586;37.730;2023-02-12T00:52:28;97883.06;;;-1.26;100.00
62712;BME280;48772;55.586;37.730;2023-02-12T00:54:54;97947.50;;;-1.11;100.00
62712;BME280;48772;55.586;37.730;2023-02-12T00:57:20;97940.94;;;-1.18;100.00
62712;BME280;48772;55.586;37.730;2023-02-12T00:59:49;97935.72;;;-1.32;100.00
62712;BME280;48772;55.586;37.730;2023-02-12T01:02:20;97957.66;;;-1.34;100.00
62712;BME280;48772;55.586;37.730;2023-02-12T01:04:51;97912.03;;;-1.72;100.00
62712;BME280;48772;55.586;37.730;2023-02-12T01:07:18;97932.97;;;-1.58;100.00
62712;BME280;48772;55.586;37.730;2023-02-12T01:09:44;97951.03;;;-1.69;100.00
62712;BME280;48772;55.586;37.730;2023-02-12T01:12:11;97942.81;;;-1.77;100.00
62712;BME280;48772;55.586;37.730;2023-02-12T01:14:37;97983.53;;;-1.59;100.00
62712;BME280;48772;55.586;37.730;2023-02-12T01:17:03;97995.50;;;-1.55;100.00
62712;BME280;48772;55.586;37.730;2023-02-12T01:19:29;98008.84;;;-1.46;100.00
62712;BME280;48772;55.586;37.730;2023-02-12T01:21:55;97996.13;;;-1.66;100.00
62712;BME280;48772;55.586;37.730;2023-02-12T01:24:21;98038.81;;;-1.51;100.00
62712;BME280;48772;55.586;37.730;2023-02-12T01:26:51;97946.81;;;-2.15;100.00
62712;BME280;48772;55.586;37.730;2023-02-12T01:29:26;98016.03;;;-1.79;100.00
62712;BME280;48772;55.586;37.730;2023-02-12T01:31:52;98023.06;;;-1.79;100.00
62712;BME280;48772;55.586;37.730;2023-02-12T01:34:18;97990.56;;;-2.05;100.00
62712;BME280;48772;55.586;37.730;2023-02-12T01:36:45;98040.31;;;-1.77;100.00
62712;BME280;48772;55.586;37.730;2023-02-12T01:39:13;98076.09;;;-1.63;100.00
62712;BME280;48772;55.586;37.730;2023-02-12T01:41:42;98057.91;;;-1.80;100.00
62712;BME280;48772;55.586;37.730;2023-02-12T01:44:20;98070.47;;;-1.87;100.00
62712;BME280;48772;55.586;37.730;2023-02-12T01:46:49;98091.44;;;-1.73;100.00
62712;BME280;48772;55.586;37.730;2023-02-12T01:49:22;98067.72;;;-1.99;100.00
62712;BME280;48772;55.586;37.730;2023-02-12T01:51:53;98087.50;;;-1.95;100.00
62712;BME280;48772;55.586;37.730;2023-02-12T01:54:23;98109.81;;;-1.74;100.00
62712;BME280;48772;55.586;37.730;2023-02-12T01:56:51;98126.44;;;-1.75;100.00
62712;BME280;48772;55.586;37.730;2023-02-12T01:59:19;98045.59;;;-2.23;100.00
62712;BME280;48772;55.586;37.730;2023-02-12T02:01:49;98103.59;;;-2.03;100.00
62712;BME280;48772;55.586;37.730;2023-02-12T02:04:20;98137.28;;;-1.83;100.00
62712;BME280;48772;55.586;37.730;2023-02-12T02:07:13;98157.44;;;-1.85;100.00
62712;BME280;48772;55.586;37.730;2023-02-12T02:13:24;98179.75;;;-1.95;100.00
62712;BME280;48772;55.586;37.730;2023-02-12T02:33:50;98141.78;;;-2.65;100.00
62712;BME280;48772;55.586;37.730;2023-02-12T02:37:03;98248.19;;;-2.05;100.00
62712;BME280;48772;55.586;37.730;2023-02-12T02:39:27;98152.13;;;-2.64;100.00
62712;BME280;48772;55.586;37.730;2023-02-12T02:42:00;98219.69;;;-2.25;100.00
62712;BME280;48772;55.586;37.730;2023-02-12T02:44:54;98183.81;;;-2.54;100.00
62712;BME280;48772;55.586;37.730;2023-02-12T02:47:32;98234.47;;;-2.26;100.00
62712;BME280;48772;55.586;37.730;2023-02-12T02:50:13;98232.81;;;-2.27;100.00
62712;BME280;48772;55.586;37.730;2023-02-12T02:52:55;98260.13;;;-2.17;100.00
62712;BME280;48772;55.586;37.730;2023-02-12T02:56:19;98250.16;;;-2.26;100.00
62712;BME280;48772;55.586;37.730;2023-02-12T02:59:27;98238.59;;;-2.37;100.00
62712;BME280;48772;55.586;37.730;2023-02-12T03:04:53;98285.66;;;-2.06;100.00
62712;BME280;48772;55.586;37.730;2023-02-12T03:07:34;98202.69;;;-2.66;100.00
62712;BME280;48772;55.586;37.730;2023-02-12T03:10:10;98314.31;;;-2.05;100.00
62712;BME280;48772;55.586;37.730;2023-02-12T03:13:09;98306.41;;;-2.03;100.00
62712;BME280;48772;55.586;37.730;2023-02-12T03:41:36;98322.06;;;-2.54;100.00
62712;BME280;48772;55.586;37.730;2023-02-12T03:47:01;98303.03;;;-2.73;100.00
62712;BME280;48772;55.586;37.730;2023-02-12T03:49:32;98332.97;;;-2.63;100.00
62712;BME280;48772;55.586;37.730;2023-02-12T03:52:02;98311.16;;;-2.79;100.00
62712;BME280;48772;55.586;37.730;2023-02-12T03:54:29;98384.72;;;-2.37;100.00
62712;BME280;48772;55.586;37.730;2023-02-12T03:57:08;98373.19;;;-2.50;100.00
62712;BME280;48772;55.586;37.730;2023-02-12T03:59:37;98405.78;;;-2.23;100.00
62712;BME280;48772;55.586;37.730;2023-02-12T04:02:04;98433.09;;;-2.30;100.00
62712;BME280;48772;55.586;37.730;2023-02-12T04:04:31;98438.00;;;-2.24;100.00
62712;BME280;48772;55.586;37.730;2023-02-12T04:06:58;98417.72;;;-2.36;100.00
62712;BME280;48772;55.586;37.730;2023-02-12T04:09:25;98356.47;;;-2.82;100.00
62712;BME280;48772;55.586;37.730;2023-02-12T04:12:06;98335.34;;;-2.94;100.00
62712;BME280;48772;55.586;37.730;2023-02-12T04:14:44;98421.06;;;-2.51;100.00
62712;BME280;48772;55.586;37.730;2023-02-12T04:17:29;98407.06;;;-2.67;100.00
62712;BME280;48772;55.586;37.730;2023-02-12T04:20:40;98473.22;;;-2.33;100.00
62712;BME280;48772;55.586;37.730;2023-02-12T04:31:01;98500.38;;;-2.37;100.00
62712;BME280;48772;55.586;37.730;2023-02-12T04:33:34;98486.72;;;-2.60;100.00
62712;BME280;48772;55.586;37.730;2023-02-12T04:36:12;98470.88;;;-2.74;100.00
62712;BME280;48772;55.586;37.730;2023-02-12T04:38:54;98500.00;;;-2.65;100.00
62712;BME280;48772;55.586;37.730;2023-02-12T04:41:24;98487.16;;;-2.69;100.00
62712;BME280;48772;55.586;37.730;2023-02-12T04:43:51;98526.06;;;-2.46;100.00
62712;BME280;48772;55.586;37.730;2023-02-12T04:46:17;98538.50;;;-2.51;100.00
62712;BME280;48772;55.586;37.730;2023-02-12T04:48:52;98518.63;;;-2.54;100.00
62712;BME280;48772;55.586;37.730;2023-02-12T04:51:20;98538.50;;;-2.51;100.00
62712;BME280;48772;55.586;37.730;2023-02-12T04:53:47;98518.78;;;-2.77;100.00
62712;BME280;48772;55.586;37.730;2023-02-12T04:56:14;98540.19;;;-2.69;100.00
62712;BME280;48772;55.586;37.730;2023-02-12T04:58:43;98450.28;;;-3.17;100.00
62712;BME280;48772;55.586;37.730;2023-02-12T05:01:10;98463.44;;;-3.20;100.00
62712;BME280;48772;55.586;37.730;2023-02-12T05:03:38;98494.22;;;-3.10;100.00
62712;BME280;48772;55.586;37.730;2023-02-12T05:06:24;98554.53;;;-2.79;100.00
62712;BME280;48772;55.586;37.730;2023-02-12T05:09:38;98580.94;;;-2.66;100.00
62712;BME280;48772;55.586;37.730;2023-02-12T05:21:18;98631.06;;;-2.60;100.00
62712;BME280;48772;55.586;37.730;2023-02-12T05:25:07;98639.75;;;-2.59;100.00
62712;BME280;48772;55.586;37.730;2023-02-12T05:27:34;98633.03;;;-2.65;100.00
62712;BME280;48772;55.586;37.730;2023-02-12T05:30:02;98544.69;;;-3.11;100.00
62712;BME280;48772;55.586;37.730;2023-02-12T05:32:30;98605.84;;;-2.79;100.00
62712;BME280;48772;55.586;37.730;2023-02-12T05:34:56;98652.25;;;-2.47;100.00
62712;BME280;48772;55.586;37.730;2023-02-12T05:37:22;98648.22;;;-2.54;100.00
62712;BME280;48772;55.586;37.730;2023-02-12T05:39:49;98663.53;;;-2.47;100.00
62712;BME280;48772;55.586;37.730;2023-02-12T05:42:15;98635.50;;;-2.62;100.00
62712;BME280;48772;55.586;37.730;2023-02-12T05:44:41;98623.41;;;-2.83;100.00
62712;BME280;48772;55.586;37.730;2023-02-12T05:47:10;98646.09;;;-2.65;100.00
62712;BME280;48772;55.586;37.730;2023-02-12T05:50:26;98679.78;;;-2.40;100.00
62712;BME280;48772;55.586;37.730;2023-02-12T05:53:20;98651.06;;;-2.60;100.00
62712;BME280;48772;55.586;37.730;2023-02-12T06:00:11;98701.69;;;-2.44;100.00
62712;BME280;48772;55.586;37.730;2023-02-12T06:02:58;98668.63;;;-2.64;100.00
62712;BME280;48772;55.586;37.730;2023-02-12T06:05:24;98652.41;;;-2.70;100.00
62712;BME280;48772;55.586;37.730;2023-02-12T06:07:50;98674.97;;;-2.69;100.00
62712;BME280;48772;55.586;37.730;2023-02-12T06:10:16;98684.28;;;-2.64;100.00
62712;BME280;48772;55.586;37.730;2023-02-12T06:12:43;98706.59;;;-2.57;100.00
62712;BME280;48772;55.586;37.730;2023-02-12T06:15:11;98642.31;;;-2.98;100.00
62712;BME280;48772;55.586;37.730;2023-02-12T06:17:37;98648.69;;;-3.05;100.00
62712;BME280;48772;55.586;37.730;2023-02-12T06:20:04;98750.59;;;-2.49;100.00
62712;BME280;48772;55.586;37.730;2023-02-12T06:22:31;98706.41;;;-2.72;100.00
62712;BME280;48772;55.586;37.730;2023-02-12T06:25:03;98660.53;;;-3.18;100.00
62712;BME280;48772;55.586;37.730;2023-02-12T06:27:45;98733.75;;;-2.82;100.00
62712;BME280;48772;55.586;37.730;2023-02-12T06:30:14;98718.56;;;-2.93;100.00
62712;BME280;48772;55.586;37.730;2023-02-12T06:32:52;98687.34;;;-3.14;100.00
62712;BME280;48772;55.586;37.730;2023-02-12T06:35:30;98778.91;;;-2.80;100.00
62712;BME280;48772;55.586;37.730;2023-02-12T06:38:04;98743.84;;;-2.95;100.00
62712;BME280;48772;55.586;37.730;2023-02-12T06:40:31;98755.59;;;-3.05;100.00
62712;BME280;48772;55.586;37.730;2023-02-12T06:43:04;98833.53;;;-2.56;100.00
62712;BME280;48772;55.586;37.730;2023-02-12T06:45:35;98727.31;;;-3.15;100.00
62712;BME280;48772;55.586;37.730;2023-02-12T06:48:06;98785.09;;;-2.83;100.00
62712;BME280;48772;55.586;37.730;2023-02-12T06:50:34;98733.91;;;-3.27;100.00
62712;BME280;48772;55.586;37.730;2023-02-12T06:53:00;98810.09;;;-2.77;100.00
62712;BME280;48772;55.586;37.730;2023-02-12T06:55:27;98790.84;;;-2.75;100.00
62712;BME280;48772;55.586;37.730;2023-02-12T06:57:53;98841.13;;;-2.50;100.00
62712;BME280;48772;55.586;37.730;2023-02-12T07:00:20;98791.03;;;-2.79;100.00
62712;BME280;48772;55.586;37.730;2023-02-12T07:02:51;98867.16;;;-2.48;100.00
62712;BME280;48772;55.586;37.730;2023-02-12T07:09:38;98771.94;;;-3.01;100.00
62712;BME280;48772;55.586;37.730;2023-02-12T07:12:05;98852.84;;;-2.60;100.00
62712;BME280;48772;55.586;37.730;2023-02-12T07:14:53;98829.78;;;-2.70;100.00
62712;BME280;48772;55.586;37.730;2023-02-12T07:17:21;98885.41;;;-2.48;100.00
62712;BME280;48772;55.586;37.730;2023-02-12T07:19:48;98785.03;;;-3.03;100.00
62712;BME280;48772;55.586;37.730;2023-02-12T07:22:15;98885.22;;;-2.44;100.00
62712;BME280;48772;55.586;37.730;2023-02-12T07:24:41;98829.56;;;-2.86;100.00
62712;BME280;48772;55.586;37.730;2023-02-12T07:27:08;98868.13;;;-2.72;100.00
62712;BME280;48772;55.586;37.730;2023-02-12T07:29:35;98900.09;;;-2.46;100.00
62712;BME280;48772;55.586;37.730;2023-02-12T07:32:15;98806.09;;;-3.07;100.00
62712;BME280;48772;55.586;37.730;2023-02-12T07:34:45;98886.38;;;-2.72;100.00
62712;BME280;48772;55.586;37.730;2023-02-12T07:37:13;98871.28;;;-2.86;100.00
62712;BME280;48772;55.586;37.730;2023-02-12T07:39:40;98858.47;;;-2.92;100.00
62712;BME280;48772;55.586;37.730;2023-02-12T07:42:06;98822.56;;;-3.28;100.00
62712;BME280;48772;55.586;37.730;2023-02-12T07:44:34;98898.06;;;-2.82;100.00
62712;BME280;48772;55.586;37.730;2023-02-12T07:47:00;98872.06;;;-2.84;100.00
62712;BME280;48772;55.586;37.730;2023-02-12T07:49:28;98917.41;;;-2.65;100.00
62712;BME280;48772;55.586;37.730;2023-02-12T07:51:58;98947.69;;;-2.39;100.00
62712;BME280;48772;55.586;37.730;2023-02-12T07:54:25;98907.91;;;-2.67;100.00
62712;BME280;48772;55.586;37.730;2023-02-12T07:56:53;98900.03;;;-2.87;100.00
62712;BME280;48772;55.586;37.730;2023-02-12T07:59:19;98962.25;;;-2.34;100.00
62712;BME280;48772;55.586;37.730;2023-02-12T08:01:49;98954.03;;;-2.46;100.00
62712;BME280;48772;55.586;37.730;2023-02-12T08:04:18;98887.66;;;-2.82;100.00
62712;BME280;48772;55.586;37.730;2023-02-12T08:06:47;98971.97;;;-2.37;100.00
62712;BME280;48772;55.586;37.730;2023-02-12T08:09:26;98991.63;;;-2.07;100.00
62712;BME280;48772;55.586;37.730;2023-02-12T08:11:53;98923.44;;;-2.64;100.00
62712;BME280;48772;55.586;37.730;2023-02-12T08:14:26;98888.50;;;-3.03;100.00
62712;BME280;48772;55.586;37.730;2023-02-12T08:16:53;98975.28;;;-2.55;100.00
62712;BME280;48772;55.586;37.730;2023-02-12T08:19:31;98984.53;;;-2.47;100.00
62712;BME280;48772;55.586;37.730;2023-02-12T08:22:12;98959.53;;;-2.52;100.00
62712;BME280;48772;55.586;37.730;2023-02-12T08:24:41;98982.94;;;-2.29;100.00
62712;BME280;48772;55.586;37.730;2023-02-12T08:27:08;99033.69;;;-2.15;100.00
62712;BME280;48772;55.586;37.730;2023-02-12T08:29:34;99039.56;;;-2.08;100.00
62712;BME280;48772;55.586;37.730;2023-02-12T08:32:06;98920.84;;;-2.64;100.00
62712;BME280;48772;55.586;37.730;2023-02-12T08:34:45;98936.91;;;-2.75;100.00
62712;BME280;48772;55.586;37.730;2023-02-12T08:37:12;99044.03;;;-2.12;100.00
62712;BME280;48772;55.586;37.730;2023-02-12T08:39:40;98937.47;;;-2.67;100.00
62712;BME280;48772;55.586;37.730;2023-02-12T08:42:06;98992.41;;;-2.27;100.00
62712;BME280;48772;55.586;37.730;2023-02-12T08:48:07;98965.56;;;-2.52;100.00
62712;BME280;48772;55.586;37.730;2023-02-12T08:50:33;98934.34;;;-2.98;100.00
62712;BME280;48772;55.586;37.730;2023-02-12T08:52:59;99069.59;;;-2.20;100.00
62712;BME280;48772;55.586;37.730;2023-02-12T08:55:25;98989.69;;;-2.45;100.00
62712;BME280;48772;55.586;37.730;2023-02-12T08:57:52;99010.75;;;-2.28;100.00
62712;BME280;48772;55.586;37.730;2023-02-12T09:00:23;99024.34;;;-2.20;100.00
62712;BME280;48772;55.586;37.730;2023-02-12T09:02:49;99064.19;;;-1.51;100.00
62712;BME280;48772;55.586;37.730;2023-02-12T09:05:17;99031.94;;;-1.11;100.00
62712;BME280;48772;55.586;37.730;2023-02-12T09:07:44;98980.59;;;-1.52;100.00
62712;BME280;48772;55.586;37.730;2023-02-12T09:10:13;99078.44;;;-1.18;100.00
62712;BME280;48772;55.586;37.730;2023-02-12T09:12:40;99052.16;;;-1.55;100.00
62712;BME280;48772;55.586;37.730;2023-02-12T09:15:06;99022.66;;;-2.00;100.00
62712;BME280;48772;55.586;37.730;2023-02-12T09:17:33;99068.22;;;-1.85;100.00
62712;BME280;48772;55.586;37.730;2023-02-12T09:19:59;99040.28;;;-2.05;100.00
62712;BME280;48772;55.586;37.730;2023-02-12T09:22:29;99065.06;;;-1.93;100.00
62712;BME280;48772;55.586;37.730;2023-02-12T09:24:55;99001.13;;;-2.26;100.00
62712;BME280;48772;55.586;37.730;2023-02-12T09:27:21;99010.88;;;-2.31;100.00
62712;BME280;48772;55.586;37.730;2023-02-12T09:29:49;99011.13;;;-2.37;100.00
62712;BME280;48772;55.586;37.730;2023-02-12T09:32:23;99111.59;;;-1.81;100.00
62712;BME280;48772;55.586;37.730;2023-02-12T09:34:49;99018.75;;;-1.90;100.00
62712;BME280;48772;55.586;37.730;2023-02-12T09:37:22;99065.50;;;-1.62;100.00
62712;BME280;48772;55.586;37.730;2023-02-12T10:06:32;99091.34;;;0.20;100.00
62712;BME280;48772;55.586;37.730;2023-02-12T10:17:41;99088.88;;;2.92;100.00
62712;BME280;48772;55.586;37.730;2023-02-12T10:26:48;99094.16;;;4.06;95.07
62712;BME280;48772;55.586;37.730;2023-02-12T10:29:19;99100.28;;;4.74;91.14
62712;BME280;48772;55.586;37.730;2023-02-12T10:31:52;99107.00;;;4.92;88.69
62712;BME280;48772;55.586;37.730;2023-02-12T10:34:31;99148.09;;;5.99;79.32
62712;BME280;48772;55.586;37.730;2023-02-12T10:37:08;99126.84;;;6.49;70.74
62712;BME280;48772;55.586;37.730;2023-02-12T10:39:41;99161.69;;;6.43;72.13
62712;BME280;48772;55.586;37.730;2023-02-12T10:42:15;99086.66;;;6.55;62.14
62712;BME280;48772;55.586;37.730;2023-02-12T10:44:45;99166.25;;;5.53;72.05
62712;BME280;48772;55.586;37.730;2023-02-12T10:47:19;99116.50;;;5.21;74.32
62712;BME280;48772;55.586;37.730;2023-02-12T10:49:55;99154.25;;;5.35;73.08
62712;BME280;48772;55.586;37.730;2023-02-12T10:52:47;99127.69;;;4.04;83.65
62712;BME280;48772;55.586;37.730;2023-02-12T10:57:54;99189.00;;;5.68;73.89
62712;BME280;48772;55.586;37.730;2023-02-12T11:00:33;99189.13;;;6.42;65.35
62712;BME280;48772;55.586;37.730;2023-02-12T11:05:40;99196.72;;;6.95;55.56
62712;BME280;48772;55.586;37.730;2023-02-12T11:10:53;99170.56;;;7.49;54.37
62712;BME280;48772;55.586;37.730;2023-02-12T11:13:25;99200.97;;;7.21;53.55
62712;BME280;48772;55.586;37.730;2023-02-12T11:15:53;99193.59;;;5.91;60.22
62712;BME280;48772;55.586;37.730;2023-02-12T11:18:24;99112.81;;;4.03;71.43
62712;BME280;48772;55.586;37.730;2023-02-12T11:23:34;99201.84;;;6.85;55.80
62712;BME280;48772;55.586;37.730;2023-02-12T11:28:55;99234.19;;;5.78;63.58
62712;BME280;48772;55.586;37.730;2023-02-12T11:31:30;99228.41;;;5.46;66.25
62712;BME280;48772;55.586;37.730;2023-02-12T11:34:16;99209.81;;;5.99;60.28
62712;BME280;48772;55.586;37.730;2023-02-12T11:36:49;99159.94;;;6.31;53.69
62712;BME280;48772;55.586;37.730;2023-02-12T11:39:35;99148.47;;;5.04;58.63
62712;BME280;48772;55.586;37.730;2023-02-12T11:42:34;99155.47;;;4.91;60.77
62712;BME280;48772;55.586;37.730;2023-02-12T11:45:03;99225.72;;;5.34;59.49
62712;BME280;48772;55.586;37.730;2023-02-12T11:47:41;99230.66;;;4.99;57.43
62712;BME280;48772;55.586;37.730;2023-02-12T11:50:25;99229.34;;;5.72;55.65
62712;BME280;48772;55.586;37.730;2023-02-12T11:52:58;99238.84;;;5.74;57.84
62712;BME280;48772;55.586;37.730;2023-02-12T11:55:28;99266.75;;;5.92;55.56
62712;BME280;48772;55.586;37.730;2023-02-12T11:58:23;99267.75;;;4.98;64.72
62712;BME280;48772;55.586;37.730;2023-02-12T12:01:04;99233.78;;;5.45;61.16
62712;BME280;48772;55.586;37.730;2023-02-12T12:03:56;99264.19;;;5.25;59.02
62712;BME280;48772;55.586;37.730;2023-02-12T12:06:39;99293.47;;;6.14;55.41
62712;BME280;48772;55.586;37.730;2023-02-12T12:14:47;99271.28;;;5.51;56.42
62712;BME280;48772;55.586;37.730;2023-02-12T12:17:51;99274.81;;;6.16;53.73
62712;BME280;48772;55.586;37.730;2023-02-12T12:20:48;99270.66;;;5.87;51.71
62712;BME280;48772;55.586;37.730;2023-02-12T12:23:36;99264.88;;;6.57;51.82
62712;BME280;48772;55.586;37.730;2023-02-12T12:26:24;99302.34;;;6.51;52.78
62712;BME280;48772;55.586;37.730;2023-02-12T12:31:34;99317.91;;;5.52;59.46
62712;BME280;48772;55.586;37.730;2023-02-12T12:34:12;99291.56;;;4.84;64.75
62712;BME280;48772;55.586;37.730;2023-02-12T12:39:43;99354.50;;;3.29;90.30
62712;BME280;48772;55.586;37.730;2023-02-12T12:45:52;99340.75;;;3.70;97.17
62712;BME280;48772;55.586;37.730;2023-02-12T13:10:35;99399.00;;;2.21;100.00
62712;BME280;48772;55.586;37.730;2023-02-12T13:13:07;99388.47;;;2.38;100.00
62712;BME280;48772;55.586;37.730;2023-02-12T13:15:40;99418.81;;;2.11;100.00
62712;BME280;48772;55.586;37.730;2023-02-12T13:18:21;99418.28;;;2.38;100.00
62712;BME280;48772;55.586;37.730;2023-02-12T13:21:39;99433.75;;;1.92;100.00
62712;BME280;48772;55.586;37.730;2023-02-12T13:24:29;99362.97;;;0.99;100.00
62712;BME280;48772;55.586;37.730;2023-02-12T13:26:59;99407.91;;;0.73;100.00
62712;BME280;48772;55.586;37.730;2023-02-12T13:29:47;99357.22;;;0.34;100.00
62712;BME280;48772;55.586;37.730;2023-02-12T13:35:48;99460.25;;;0.76;100.00
62712;BME280;48772;55.586;37.730;2023-02-12T13:39:22;99473.50;;;0.73;100.00
62712;BME280;48772;55.586;37.730;2023-02-12T13:57:26;99400.09;;;0.33;100.00
62712;BME280;48772;55.586;37.730;2023-02-12T13:59:54;99447.69;;;0.24;100.00
62712;BME280;48772;55.586;37.730;2023-02-12T14:02:47;99476.06;;;0.35;100.00
62712;BME280;48772;55.586;37.730;2023-02-12T14:05:31;99484.41;;;0.44;100.00
62712;BME280;48772;55.586;37.730;2023-02-12T14:08:50;99445.56;;;0.32;100.00
62712;BME280;48772;55.586;37.730;2023-02-12T14:11:22;99408.28;;;0.26;100.00
62712;BME280;48772;55.586;37.730;2023-02-12T14:14:01;99401.91;;;-0.09;100.00
62712;BME280;48772;55.586;37.730;2023-02-12T14:16:41;99395.34;;;-0.19;100.00
62712;BME280;48772;55.586;37.730;2023-02-12T14:19:41;99506.53;;;-0.05;100.00
62712;BME280;48772;55.586;37.730;2023-02-12T14:25:44;99494.28;;;-1.16;100.00
62712;BME280;48772;55.586;37.730;2023-02-12T14:28:25;99481.69;;;-1.30;100.00
62712;BME280;48772;55.586;37.730;2023-02-12T14:37:52;99443.44;;;-2.07;100.00
62712;BME280;48772;55.586;37.730;2023-02-12T14:50:53;99525.94;;;-2.00;100.00
62712;BME280;48772;55.586;37.730;2023-02-12T14:57:34;99459.13;;;-2.90;100.00
62712;BME280;48772;55.586;37.730;2023-02-12T15:09:15;99522.06;;;-2.73;100.00
62712;BME280;48772;55.586;37.730;2023-02-12T15:12:34;99533.00;;;-2.60;100.00
62712;BME280;48772;55.586;37.730;2023-02-12T15:15:24;99570.09;;;-2.49;100.00
62712;BME280;48772;55.586;37.730;2023-02-12T15:18:27;99607.88;;;-2.32;100.00
62712;BME280;48772;55.586;37.730;2023-02-12T15:21:18;99549.94;;;-2.73;100.00
62712;BME280;48772;55.586;37.730;2023-02-12T15:24:10;99604.56;;;-2.38;100.00
62712;BME280;48772;55.586;37.730;2023-02-12T15:26:44;99598.44;;;-2.66;100.00
62712;BME280;48772;55.586;37.730;2023-02-12T15:35:32;99521.78;;;-3.23;100.00
62712;BME280;48772;55.586;37.730;2023-02-12T15:38:07;99596.16;;;-2.78;100.00
62712;BME280;48772;55.586;37.730;2023-02-12T15:44:36;99558.09;;;-3.16;100.00
62712;BME280;48772;55.586;37.730;2023-02-12T15:47:22;99576.16;;;-3.10;100.00
62712;BME280;48772;55.586;37.730;2023-02-12T15:53:20;99615.63;;;-2.90;100.00
62712;BME280;48772;55.586;37.730;2023-02-12T15:55:59;99614.19;;;-3.01;100.00
62712;BME280;48772;55.586;37.730;2023-02-12T16:06:41;99662.28;;;-2.79;100.00
62712;BME280;48772;55.586;37.730;2023-02-12T16:20:25;99653.56;;;-2.78;100.00
62712;BME280;48772;55.586;37.730;2023-02-12T17:05:55;99614.66;;;-3.52;100.00
62712;BME280;48772;55.586;37.730;2023-02-12T17:39:24;99684.66;;;-3.38;100.00
62712;BME280;48772;55.586;37.730;2023-02-12T17:42:06;99641.72;;;-3.57;100.00
62712;BME280;48772;55.586;37.730;2023-02-12T17:44:37;99677.66;;;-3.36;100.00
62712;BME280;48772;55.586;37.730;2023-02-12T17:47:08;99672.56;;;-3.40;100.00
62712;BME280;48772;55.586;37.730;2023-02-12T17:49:34;99664.09;;;-3.50;100.00
62712;BME280;48772;55.586;37.730;2023-02-12T17:52:08;99635.75;;;-3.64;100.00
62712;BME280;48772;55.586;37.730;2023-02-12T17:54:38;99658.03;;;-3.51;100.00
62712;BME280;48772;55.586;37.730;2023-02-12T17:57:07;99599.84;;;-3.85;100.00
62712;BME280;48772;55.586;37.730;2023-02-12T17:59:37;99649.47;;;-3.56;100.00
62712;BME280;48772;55.586;37.730;2023-02-12T18:02:06;99694.84;;;-3.29;100.00
62712;BME280;48772;55.586;37.730;2023-02-12T18:04:39;99634.06;;;-3.65;100.00
62712;BME280;48772;55.586;37.730;2023-02-12T18:07:15;99599.84;;;-3.85;100.00
62712;BME280;48772;55.586;37.730;2023-02-12T18:09:43;99600.63;;;-3.83;100.00
62712;BME280;48772;55.586;37.730;2023-02-12T18:15:24;99580.97;;;-3.96;100.00
62712;BME280;48772;55.586;37.730;2023-02-12T18:17:52;99620.72;;;-3.88;100.00
62712;BME280;48772;55.586;37.730;2023-02-12T18:20:20;99710.69;;;-3.36;100.00
62712;BME280;48772;55.586;37.730;2023-02-12T18:27:38;99654.97;;;-3.68;100.00
62712;BME280;48772;55.586;37.730;2023-02-12T18:30:28;99602.00;;;-4.03;100.00
62712;BME280;48772;55.586;37.730;2023-02-12T18:33:07;99697.94;;;-3.49;100.00
62712;BME280;48772;55.586;37.730;2023-02-12T18:35:34;99725.44;;;-3.35;100.00
62712;BME280;48772;55.586;37.730;2023-02-12T18:38:03;99686.16;;;-3.65;100.00
62712;BME280;48772;55.586;37.730;2023-02-12T18:40:38;99694.88;;;-3.66;100.00
62712;BME280;48772;55.586;37.730;2023-02-12T18:43:07;99734.19;;;-3.38;100.00
62712;BME280;48772;55.586;37.730;2023-02-12T18:45:34;99629.97;;;-4.13;100.00
62712;BME280;48772;55.586;37.730;2023-02-12T18:48:38;99731.84;;;-3.50;100.00
62712;BME280;48772;55.586;37.730;2023-02-12T18:51:17;99683.31;;;-3.92;100.00
62712;BME280;48772;55.586;37.730;2023-02-12T18:54:05;99685.72;;;-3.83;100.00
62712;BME280;48772;55.586;37.730;2023-02-12T18:57:02;99703.03;;;-3.81;100.00
62712;BME280;48772;55.586;37.730;2023-02-12T18:59:39;99638.13;;;-4.28;100.00
62712;BME280;48772;55.586;37.730;2023-02-12T19:03:00;99706.63;;;-3.85;100.00
62712;BME280;48772;55.586;37.730;2023-02-12T19:14:12;99726.50;;;-3.81;100.00
62712;BME280;48772;55.586;37.730;2023-02-12T19:17:33;99636.53;;;-4.35;100.00
62712;BME280;48772;55.586;37.730;2023-02-12T19:20:24;99674.34;;;-4.19;100.00
62712;BME280;48772;55.586;37.730;2023-02-12T19:36:56;99712.44;;;-4.15;100.00
62712;BME280;48772;55.586;37.730;2023-02-12T19:39:52;99711.69;;;-4.20;100.00
62712;BME280;48772;55.586;37.730;2023-02-12T19:43:19;99676.56;;;-4.42;100.00
62712;BME280;48772;55.586;37.730;2023-02-12T19:49:41;99725.59;;;-4.21;100.00